Time;durP1;ratioP1;P1;durP2;ratioP2;P2;SDS_P1;SDS_P2;PMS_P1;PMS_P2;Temp;Humidity;BMP_temperature;BMP_pressure;BME280_temperature;BME280_humidity;BME280_pressure;Samples;Min_cycle;Max_cycle;Signal;HPM_P1;HPM_P2
2022/05/07 04:01:24;;;;;;;14.10;12.90;;;10.00;99.90;;;;;;5535068;23;20552;-63
2022/05/07 04:03:51;;;;;;;14.90;13.50;;;10.00;99.90;;;;;;4995443;28;20446;-63
2022/05/07 04:06:17;;;;;;;16.37;14.67;;;10.00;99.90;;;;;;4996011;28;20449;-63
2022/05/07 04:08:45;;;;;;;14.03;12.83;;;10.00;99.90;;;;;;4995700;28;20953;-63
2022/05/07 04:11:12;;;;;;;13.93;12.67;;;9.90;99.90;;;;;;4995841;28;20481;-63
2022/05/07 04:13:38;;;;;;;13.43;12.07;;;9.90;99.90;;;;;;4995741;28;20481;-63
2022/05/07 04:16:06;;;;;;;13.47;12.20;;;9.90;99.90;;;;;;4995741;28;20458;-63
2022/05/07 04:18:34;;;;;;;12.87;11.70;;;9.90;99.90;;;;;;4995324;28;20461;-63
2022/05/07 04:21:00;;;;;;;11.60;10.33;;;9.90;99.90;;;;;;4995768;28;20478;-63
2022/05/07 04:23:27;;;;;;;14.80;10.90;;;9.90;99.90;;;;;;4995709;28;20461;-63
2022/05/07 04:25:54;;;;;;;12.80;11.70;;;9.90;99.90;;;;;;4995599;28;20512;-63
2022/05/07 04:28:21;;;;;;;11.03;10.13;;;9.90;99.90;;;;;;4995300;28;20496;-63
2022/05/07 04:30:47;;;;;;;11.30;10.33;;;9.90;99.90;;;;;;4995537;28;20548;-63
2022/05/07 04:33:16;;;;;;;12.80;10.27;;;9.90;99.90;;;;;;4995448;28;20552;-63
2022/05/07 04:35:44;;;;;;;10.93;9.83;;;9.90;99.90;;;;;;4995623;28;20458;-63
2022/05/07 04:38:11;;;;;;;12.53;11.20;;;10.00;99.90;;;;;;4995574;28;20464;-63
2022/05/07 04:40:37;;;;;;;11.03;9.93;;;10.00;99.90;;;;;;4995448;28;20504;-63
2022/05/07 04:43:05;;;;;;;12.53;11.33;;;10.10;99.90;;;;;;4995180;28;20451;-63
2022/05/07 04:45:34;;;;;;;11.40;10.40;;;10.10;99.90;;;;;;4995402;28;20461;-63
2022/05/07 04:48:01;;;;;;;14.73;13.43;;;10.10;99.90;;;;;;4995361;28;20468;-63
2022/05/07 04:50:27;;;;;;;12.70;11.50;;;10.10;99.90;;;;;;4995177;28;20457;-63
2022/05/07 04:52:55;;;;;;;11.47;10.37;;;10.00;99.90;;;;;;4995165;28;20474;-63
2022/05/07 04:55:22;;;;;;;14.00;12.53;;;10.10;99.90;;;;;;4995089;28;20454;-64
2022/05/07 04:57:49;;;;;;;12.13;11.13;;;10.10;99.90;;;;;;4994864;28;20458;-64
2022/05/07 05:00:16;;;;;;;12.57;11.23;;;10.20;99.90;;;;;;4994656;28;20823;-64
2022/05/07 05:02:43;;;;;;;11.47;10.37;;;10.20;99.90;;;;;;4995041;28;20445;-64
2022/05/07 05:05:10;;;;;;;11.60;10.50;;;10.20;99.90;;;;;;4994830;28;20458;-64
2022/05/07 05:07:36;;;;;;;12.93;11.60;;;10.30;99.90;;;;;;5000115;28;20458;-64
2022/05/07 05:10:05;;;;;;;11.80;10.80;;;10.40;99.90;;;;;;5006396;28;20449;-64
2022/05/07 05:12:33;;;;;;;11.10;10.03;;;10.40;99.90;;;;;;4994725;28;20504;-64
2022/05/07 05:15:03;;;;;;;11.97;10.87;;;10.50;99.90;;;;;;4994724;28;20819;-64
2022/05/07 05:17:30;;;;;;;11.60;10.60;;;10.60;99.90;;;;;;4994781;28;20537;-64
2022/05/07 05:19:57;;;;;;;13.13;12.03;;;10.70;99.90;;;;;;4994709;28;20814;-64
2022/05/07 05:22:24;;;;;;;15.70;14.20;;;10.80;99.90;;;;;;4994660;28;20489;-64
2022/05/07 05:24:51;;;;;;;14.60;13.40;;;10.80;99.90;;;;;;4994421;28;20461;-64
2022/05/07 05:27:19;;;;;;;13.90;12.63;;;10.90;99.90;;;;;;4994646;28;20458;-64
2022/05/07 05:29:45;;;;;;;15.27;13.67;;;11.10;99.90;;;;;;4993948;28;20466;-64
2022/05/07 05:32:17;;;;;;;14.57;13.27;;;11.40;99.90;;;;;;4994402;28;20532;-64
2022/05/07 05:34:45;;;;;;;22.13;12.83;;;11.70;99.90;;;;;;4994463;28;20609;-64
2022/05/07 05:37:12;;;;;;;15.07;13.37;;;12.00;99.90;;;;;;4994596;28;20458;-64
2022/05/07 05:39:39;;;;;;;15.20;13.60;;;12.40;99.90;;;;;;4994388;28;20462;-64
2022/05/07 05:42:05;;;;;;;12.70;11.77;;;12.70;99.90;;;;;;4994388;28;20524;-64
2022/05/07 05:44:36;;;;;;;14.60;13.20;;;13.10;99.90;;;;;;4994358;28;20520;-64
2022/05/07 05:47:03;;;;;;;14.60;13.03;;;13.40;99.90;;;;;;4994354;28;20514;-64
2022/05/07 05:49:30;;;;;;;14.60;13.30;;;13.50;99.90;;;;;;4994367;28;20454;-64
2022/05/07 05:51:56;;;;;;;15.97;14.50;;;13.50;99.90;;;;;;4994033;28;20477;-64
2022/05/07 05:54:24;;;;;;;14.33;13.13;;;13.50;99.90;;;;;;4994371;28;20838;-64
2022/05/07 05:56:51;;;;;;;16.77;15.10;;;13.50;99.90;;;;;;4994427;28;20500;-63
2022/05/07 05:59:18;;;;;;;16.47;14.77;;;13.50;99.90;;;;;;4994610;28;20485;-64
2022/05/07 06:01:46;;;;;;;16.90;15.53;;;13.50;99.90;;;;;;4994044;28;20481;-63
2022/05/07 06:04:13;;;;;;;16.67;15.27;;;13.10;99.90;;;;;;4994225;28;20489;-64
2022/05/07 06:06:39;;;;;;;14.60;13.40;;;13.30;99.90;;;;;;4994251;28;20464;-65
2022/05/07 06:09:06;;;;;;;15.10;13.83;;;13.60;99.90;;;;;;4994468;28;20457;-64
2022/05/07 06:11:33;;;;;;;14.13;12.80;;;13.90;99.90;;;;;;4994257;28;20877;-64
2022/05/07 06:13:59;;;;;;;14.30;13.07;;;14.30;99.90;;;;;;4994330;28;20481;-65
2022/05/07 06:16:26;;;;;;;14.47;13.17;;;14.70;99.90;;;;;;4994314;28;20462;-64
2022/05/07 06:18:54;;;;;;;13.30;12.20;;;15.00;99.90;;;;;;4993904;28;20938;-64
2022/05/07 06:21:21;;;;;;;15.67;14.20;;;15.50;99.90;;;;;;4993935;28;20847;-64
2022/05/07 06:23:47;;;;;;;13.27;11.97;;;16.00;99.90;;;;;;4994223;28;20454;-64
2022/05/07 06:29:01;;;;;;;13.27;12.07;;;16.90;99.90;;;;;;4993882;28;20469;-64
2022/05/07 06:31:29;;;;;;;12.57;11.40;;;17.30;99.90;;;;;;4993680;28;20820;-65
2022/05/07 06:33:58;;;;;;;14.40;12.23;;;17.70;99.90;;;;;;4993556;28;21008;-64
2022/05/07 06:36:24;;;;;;;12.20;11.00;;;18.10;99.90;;;;;;4993612;28;20549;-64
2022/05/07 06:38:51;;;;;;;13.40;12.30;;;18.60;99.90;;;;;;4993748;28;20828;-64
2022/05/07 06:41:18;;;;;;;12.20;10.90;;;18.90;99.90;;;;;;4994823;28;20505;-64
2022/05/07 06:43:44;;;;;;;12.43;11.43;;;19.20;99.90;;;;;;4997754;28;20461;-63
2022/05/07 06:46:11;;;;;;;13.57;12.03;;;19.50;99.90;;;;;;4997733;28;20458;-63
2022/05/07 06:48:38;;;;;;;11.27;10.17;;;19.70;99.90;;;;;;4997739;28;20457;-63
2022/05/07 06:51:06;;;;;;;12.27;11.20;;;20.00;99.90;;;;;;4997316;28;21058;-63
2022/05/07 06:53:33;;;;;;;13.80;12.70;;;20.10;99.90;;;;;;4997407;28;20476;-64
2022/05/07 06:56:01;;;;;;;12.37;11.37;;;20.00;99.90;;;;;;4997568;28;20870;-64
2022/05/07 06:58:30;;;;;;;13.87;12.67;;;20.20;99.90;;;;;;4997235;28;20958;-63
2022/05/07 07:00:58;;;;;;;13.37;12.17;;;20.40;99.90;;;;;;4997089;28;20536;-63
2022/05/07 07:03:25;;;;;;;12.97;11.87;;;20.50;99.90;;;;;;4997778;28;20851;-63
2022/05/07 07:05:54;;;;;;;12.87;11.63;;;20.70;99.90;;;;;;4997539;28;20456;-63
2022/05/07 07:08:22;;;;;;;13.13;11.83;;;21.20;99.90;;;;;;4997607;28;20461;-63
2022/05/07 07:10:49;;;;;;;13.40;12.27;;;21.20;99.90;;;;;;4996975;28;20474;-63
2022/05/07 07:13:16;;;;;;;13.43;12.43;;;21.70;99.90;;;;;;4997308;28;20473;-62
2022/05/07 07:15:44;;;;;;;14.20;13.03;;;22.20;99.90;;;;;;4997172;28;20869;-62
2022/05/07 07:18:11;;;;;;;14.17;12.83;;;22.50;99.90;;;;;;4996939;28;20540;-62
2022/05/07 07:20:40;;;;;;;13.17;11.97;;;22.40;99.90;;;;;;4997062;28;20480;-62
2022/05/07 07:23:08;;;;;;;12.70;11.60;;;22.30;99.90;;;;;;4996985;28;20454;-62
2022/05/07 07:25:36;;;;;;;10.80;10.07;;;22.80;99.90;;;;;;4997154;28;20811;-62
2022/05/07 07:28:03;;;;;;;12.13;11.23;;;23.30;99.20;;;;;;4996896;28;20454;-62
2022/05/07 07:30:30;;;;;;;13.37;12.03;;;23.70;97.40;;;;;;4996628;28;20475;-62
2022/05/07 07:32:57;;;;;;;12.87;11.60;;;23.80;97.60;;;;;;4996809;28;20454;-62
2022/05/07 07:35:24;;;;;;;12.77;11.87;;;24.00;97.20;;;;;;4996890;28;20454;-62
2022/05/07 07:37:51;;;;;;;12.53;11.53;;;24.50;96.50;;;;;;4996666;28;20453;-63
2022/05/07 07:40:17;;;;;;;13.70;12.50;;;24.90;96.80;;;;;;4996692;28;20462;-62
2022/05/07 07:42:46;;;;;;;11.13;10.33;;;24.80;95.00;;;;;;4996623;28;20512;-62
2022/05/07 07:47:59;;;;;;;10.83;9.93;;;25.50;93.70;;;;;;4996485;28;20530;-62
2022/05/07 07:50:29;;;;;;;9.60;8.83;;;25.60;91.10;;;;;;4996457;28;20539;-62
2022/05/07 07:52:56;;;;;;;9.87;9.07;;;25.60;90.20;;;;;;4995876;28;20454;-62
2022/05/07 07:55:23;;;;;;;11.60;10.60;;;25.90;85.00;;;;;;4996533;28;20787;-62
2022/05/07 07:57:54;;;;;;;11.73;9.93;;;25.70;88.30;;;;;;4996457;28;20449;-63
2022/05/07 08:00:21;;;;;;;12.27;11.17;;;25.60;88.60;;;;;;4996382;28;20454;-62
2022/05/07 08:02:48;;;;;;;13.73;11.60;;;25.70;87.10;;;;;;4996552;28;20533;-62
2022/05/07 08:05:16;;;;;;;12.27;11.27;;;25.90;86.20;;;;;;4996394;28;20492;-62
2022/05/07 08:13:13;;;;;;;13.47;12.20;;;25.60;89.30;;;;;;4995918;28;20918;-62
2022/05/07 08:15:40;;;;;;;11.73;10.80;;;26.00;87.60;;;;;;4995605;28;20484;-62
2022/05/07 08:18:07;;;;;;;12.83;11.63;;;26.70;83.60;;;;;;4995918;28;20453;-62
2022/05/07 08:20:33;;;;;;;12.67;11.70;;;27.10;77.50;;;;;;4995753;28;20524;-62
2022/05/07 08:23:00;;;;;;;11.73;10.70;;;27.20;79.40;;;;;;4995859;28;20465;-63
2022/05/07 08:25:27;;;;;;;12.53;11.63;;;27.20;82.00;;;;;;4995763;28;20497;-62
2022/05/07 08:27:53;;;;;;;12.03;10.93;;;27.40;78.60;;;;;;4996460;28;20464;-62
2022/05/07 08:30:22;;;;;;;12.00;11.10;;;27.40;83.40;;;;;;4995411;28;20450;-63
2022/05/07 08:32:48;;;;;;;11.63;10.73;;;27.50;80.00;;;;;;4995676;28;20454;-63
2022/05/07 08:35:15;;;;;;;10.53;9.73;;;27.80;77.50;;;;;;4995498;28;20577;-62
2022/05/07 08:37:42;;;;;;;11.23;10.43;;;28.40;76.40;;;;;;4995554;28;20461;-63
2022/05/07 08:40:09;;;;;;;12.03;10.90;;;28.60;74.10;;;;;;4995462;28;20461;-63
2022/05/07 08:42:37;;;;;;;10.77;9.97;;;28.70;72.20;;;;;;4995646;28;20449;-63
2022/05/07 08:45:04;;;;;;;11.33;10.43;;;28.80;67.70;;;;;;5000422;28;20473;-63
2022/05/07 08:47:32;;;;;;;11.23;10.13;;;28.70;71.70;;;;;;5003629;28;20455;-63
2022/05/07 08:50:00;;;;;;;12.27;10.10;;;28.40;74.10;;;;;;4996838;28;20847;-66
2022/05/07 08:52:28;;;;;;;12.10;11.10;;;28.40;68.20;;;;;;4995270;28;20474;-66
2022/05/07 08:54:54;;;;;;;11.43;10.60;;;28.80;72.80;;;;;;4994977;28;20508;-66
2022/05/07 08:57:21;;;;;;;11.20;10.13;;;28.40;73.30;;;;;;4995192;28;20461;-66
2022/05/07 08:59:51;;;;;;;10.63;9.57;;;28.90;72.10;;;;;;4995263;28;20458;-66
2022/05/07 09:02:18;;;;;;;11.23;10.10;;;28.90;70.30;;;;;;4994934;28;20841;-66
2022/05/07 09:04:56;;;;;;;10.23;9.43;;;28.80;70.20;;;;;;4994890;28;20449;-66
2022/05/07 09:07:23;;;;;;;9.60;8.77;;;28.80;72.10;;;;;;4994903;28;20533;-68
2022/05/07 09:09:50;;;;;;;9.53;8.73;;;29.00;69.20;;;;;;4995015;28;20465;-66
2022/05/07 09:12:24;;;;;;;9.40;8.60;;;29.00;70.70;;;;;;4994686;28;20489;-63
2022/05/07 09:14:50;;;;;;;9.90;9.10;;;29.50;64.40;;;;;;4994578;28;20477;-63
2022/05/07 09:17:19;;;;;;;10.30;9.60;;;29.30;65.90;;;;;;4994683;28;20465;-63
2022/05/07 09:19:46;;;;;;;10.00;9.23;;;29.20;65.70;;;;;;4994658;28;20520;-64
2022/05/07 09:22:14;;;;;;;7.30;6.80;;;29.60;65.40;;;;;;4994635;28;20477;-64
2022/05/07 09:24:52;;;;;;;7.03;6.53;;;30.00;62.30;;;;;;4994466;28;20457;-63
2022/05/07 09:27:19;;;;;;;7.80;7.10;;;30.70;61.90;;;;;;4994567;28;20473;-63
2022/05/07 09:29:46;;;;;;;7.70;7.00;;;30.80;61.10;;;;;;4994404;28;20438;-64
2022/05/07 09:32:14;;;;;;;9.17;7.90;;;30.40;63.40;;;;;;4994394;28;20478;-63
2022/05/07 09:37:36;;;;;;;8.93;7.60;;;30.00;67.10;;;;;;4994674;28;20425;-64
2022/05/07 09:40:05;;;;;;;7.67;7.07;;;29.90;63.40;;;;;;4994594;28;20520;-64
2022/05/07 09:42:34;;;;;;;9.30;7.63;;;29.90;61.20;;;;;;4994330;28;20481;-64
2022/05/07 09:45:02;;;;;;;7.70;7.20;;;29.90;61.00;;;;;;4995113;28;20550;-63
2022/05/07 09:47:29;;;;;;;8.10;7.47;;;30.00;62.80;;;;;;4994490;28;20532;-63
2022/05/07 09:57:30;;;;;;;5.07;4.67;;;30.40;60.10;;;;;;4994760;28;20422;-63
2022/05/07 09:58:17;;;;;;;5.30;4.90;;;30.70;56.50;;;;;;4994371;28;20486;-63
2022/05/07 10:01:00;;;;;;;5.57;5.17;;;30.90;59.30;;;;;;4993978;28;20899;-63
2022/05/07 10:03:35;;;;;;;5.03;4.63;;;31.20;58.10;;;;;;4994183;28;20946;-63
2022/05/07 10:06:18;;;;;;;5.43;5.03;;;31.20;53.80;;;;;;4994435;28;20444;-64
2022/05/07 10:09:00;;;;;;;4.83;4.30;;;31.20;54.70;;;;;;4994376;28;20442;-64
2022/05/07 10:11:28;;;;;;;5.90;4.40;;;31.10;51.60;;;;;;4994247;28;20482;-64
2022/05/07 10:13:55;;;;;;;5.03;4.27;;;31.20;55.90;;;;;;4993922;28;20972;-64
2022/05/07 10:16:23;;;;;;;6.70;5.00;;;30.90;53.20;;;;;;4994937;28;20457;-63
2022/05/07 10:18:50;;;;;;;6.83;5.00;;;31.30;52.80;;;;;;4998119;28;20462;-63
2022/05/07 10:21:19;;;;;;;5.10;4.70;;;31.40;52.80;;;;;;4999417;28;20473;-64
2022/05/07 10:23:55;;;;;;;4.73;4.43;;;30.80;53.10;;;;;;4998683;28;20460;-63
2022/05/07 10:26:24;;;;;;;3.97;3.57;;;30.00;55.70;;;;;;4998054;28;20454;-63
2022/05/07 10:28:52;;;;;;;4.90;4.63;;;30.10;55.60;;;;;;4998374;28;20453;-64
2022/05/07 10:31:21;;;;;;;4.50;4.10;;;30.40;53.70;;;;;;4998360;28;20484;-64
2022/05/07 10:33:48;;;;;;;5.43;4.03;;;30.50;54.50;;;;;;4998205;28;20453;-63
2022/05/07 10:36:15;;;;;;;6.97;4.40;;;30.80;52.20;;;;;;4998431;28;20454;-63
2022/05/07 10:38:45;;;;;;;4.67;4.27;;;30.60;52.50;;;;;;4997749;28;20493;-63
2022/05/07 10:41:26;;;;;;;4.80;4.40;;;30.30;52.20;;;;;;4998448;28;20469;-64
2022/05/07 10:44:06;;;;;;;5.10;4.60;;;30.40;50.60;;;;;;4997681;28;20453;-63
2022/05/07 10:46:42;;;;;;;4.20;3.63;;;30.60;54.40;;;;;;4997648;28;20442;-63
2022/05/07 10:49:09;;;;;;;3.50;3.30;;;30.70;50.40;;;;;;4997455;28;20457;-63
2022/05/07 10:51:38;;;;;;;7.33;4.00;;;31.00;52.20;;;;;;4997397;28;20474;-63
2022/05/07 10:54:18;;;;;;;4.93;4.43;;;31.20;50.40;;;;;;4997257;28;20465;-63
2022/05/07 10:56:49;;;;;;;4.30;4.00;;;31.10;49.10;;;;;;4997364;28;20529;-63
2022/05/07 10:59:15;;;;;;;4.53;3.90;;;31.10;49.20;;;;;;4997238;28;20464;-63
2022/05/07 11:01:42;;;;;;;3.57;3.37;;;30.90;49.70;;;;;;4996918;28;20485;-63
2022/05/07 11:04:12;;;;;;;5.50;3.27;;;31.10;49.70;;;;;;4997207;28;20459;-63
2022/05/07 11:06:47;;;;;;;5.90;3.83;;;31.40;48.80;;;;;;4997136;28;20457;-63
2022/05/07 11:09:16;;;;;;;3.63;3.07;;;31.30;50.20;;;;;;4997068;28;20468;-64
2022/05/07 11:11:44;;;;;;;2.73;2.30;;;31.30;52.70;;;;;;4996966;28;20473;-63
2022/05/07 11:14:20;;;;;;;3.53;3.23;;;31.00;48.50;;;;;;4996875;28;20545;-63
2022/05/07 11:16:47;;;;;;;3.60;3.30;;;30.60;50.30;;;;;;4997008;28;20477;-63
2022/05/07 11:19:24;;;;;;;3.73;3.40;;;29.40;52.50;;;;;;4997080;28;20457;-63
2022/05/07 11:21:52;;;;;;;3.30;3.00;;;29.10;54.60;;;;;;4996895;28;20477;-63
2022/05/07 11:24:19;;;;;;;2.53;2.43;;;29.10;51.70;;;;;;4996885;28;20454;-63
2022/05/07 11:26:50;;;;;;;2.97;2.83;;;28.20;50.50;;;;;;4996688;28;20453;-63
2022/05/07 11:29:18;;;;;;;2.87;2.77;;;27.00;52.90;;;;;;4995293;28;20922;-63
2022/05/07 11:31:55;;;;;;;5.17;2.73;;;26.50;54.50;;;;;;4996715;28;20525;-63
2022/05/07 11:34:30;;;;;;;3.93;2.80;;;26.10;57.00;;;;;;4996696;28;20786;-63
2022/05/07 11:36:56;;;;;;;3.13;2.70;;;25.90;56.70;;;;;;4996190;28;20964;-63
2022/05/07 11:39:24;;;;;;;3.20;3.00;;;26.00;56.90;;;;;;4996450;28;20933;-63
2022/05/07 11:41:54;;;;;;;2.63;2.37;;;26.20;55.50;;;;;;4997003;28;20480;-63
2022/05/07 11:47:21;;;;;;;2.83;2.70;;;26.20;57.00;;;;;;4996164;28;20505;-63
2022/05/07 11:50:01;;;;;;;4.23;2.67;;;25.90;56.90;;;;;;4996263;28;20434;-63
2022/05/07 11:52:28;;;;;;;4.33;3.03;;;25.70;54.60;;;;;;4996038;28;20912;-63
2022/05/07 11:54:55;;;;;;;3.30;2.80;;;25.70;57.10;;;;;;4996137;28;20893;-63
2022/05/07 11:57:29;;;;;;;4.00;2.70;;;25.90;58.70;;;;;;4996529;28;20538;-63
2022/05/07 11:59:58;;;;;;;5.63;3.20;;;26.00;56.90;;;;;;4996699;28;20457;-63
2022/05/07 12:02:25;;;;;;;4.17;3.43;;;25.90;55.90;;;;;;4996104;28;20895;-63
2022/05/07 12:05:00;;;;;;;2.13;2.03;;;25.90;56.70;;;;;;4996120;28;20861;-63
2022/05/07 12:07:27;;;;;;;3.70;2.13;;;26.00;55.00;;;;;;4996228;28;20448;-63
2022/05/07 12:09:54;;;;;;;2.00;1.90;;;25.90;54.60;;;;;;5000824;28;20457;-63
2022/05/07 12:12:20;;;;;;;2.80;2.60;;;26.10;56.80;;;;;;5007286;28;20476;-63
2022/05/07 12:14:47;;;;;;;2.37;2.20;;;26.20;57.30;;;;;;4999675;28;20482;-63
2022/05/07 12:19:59;;;;;;;3.00;2.70;;;26.30;56.00;;;;;;4995780;28;20418;-63
2022/05/07 12:30:38;;;;;;;7.00;2.57;;;26.60;56.20;;;;;;4995526;28;20488;-63
2022/05/07 12:33:07;;;;;;;2.40;2.30;;;26.10;51.70;;;;;;4995629;28;20454;-63
2022/05/07 12:35:33;;;;;;;3.20;2.53;;;25.70;54.50;;;;;;4995405;28;20906;-63
2022/05/07 12:38:00;;;;;;;2.80;2.60;;;25.60;53.70;;;;;;4995168;28;20458;-63
2022/05/07 12:40:27;;;;;;;2.50;2.30;;;25.40;54.80;;;;;;4994737;28;20943;-63
2022/05/07 12:42:54;;;;;;;3.40;2.47;;;25.40;54.60;;;;;;4995318;28;20457;-63
2022/05/07 12:45:21;;;;;;;2.87;2.37;;;25.50;56.20;;;;;;4995249;28;20485;-63
2022/05/07 12:47:47;;;;;;;2.20;2.00;;;25.60;57.00;;;;;;4995269;28;20462;-63
2022/05/07 12:50:16;;;;;;;2.63;2.43;;;25.70;55.40;;;;;;4994826;28;20454;-63
2022/05/07 12:52:42;;;;;;;2.63;2.23;;;25.70;55.60;;;;;;4994872;28;20969;-63
2022/05/07 12:55:09;;;;;;;2.23;2.13;;;25.70;53.70;;;;;;4995014;28;20902;-63
2022/05/07 12:57:36;;;;;;;2.30;2.20;;;25.70;55.40;;;;;;4995724;28;20453;-63
2022/05/07 13:00:04;;;;;;;2.37;2.27;;;25.80;56.20;;;;;;4994902;28;20504;-63
2022/05/07 13:02:31;;;;;;;11.30;2.60;;;25.90;54.20;;;;;;4994415;28;20521;-63
2022/05/07 13:04:58;;;;;;;2.50;2.30;;;26.00;55.70;;;;;;4994857;28;20867;-63
2022/05/07 13:07:26;;;;;;;3.40;2.40;;;26.10;56.40;;;;;;4994766;28;20454;-63
2022/05/07 13:09:53;;;;;;;2.40;2.20;;;26.30;56.50;;;;;;4994737;28;20457;-63
2022/05/07 13:12:20;;;;;;;2.20;2.10;;;26.30;56.60;;;;;;4994758;28;20480;-63
2022/05/07 13:14:47;;;;;;;2.93;2.40;;;26.30;55.60;;;;;;4994752;28;20453;-63
2022/05/07 13:17:15;;;;;;;2.23;2.03;;;26.40;56.90;;;;;;4995356;28;20450;-63
2022/05/07 13:19:42;;;;;;;5.80;3.07;;;26.50;54.70;;;;;;4994556;28;20935;-63
2022/05/07 13:22:09;;;;;;;3.20;2.50;;;26.60;54.60;;;;;;4994902;28;20477;-63
2022/05/07 13:24:37;;;;;;;2.60;2.40;;;26.50;56.00;;;;;;4994429;28;20955;-63
2022/05/07 13:27:04;;;;;;;2.60;2.40;;;26.60;56.30;;;;;;4994863;28;20462;-63
2022/05/07 13:29:34;;;;;;;2.57;2.47;;;26.50;56.00;;;;;;4994799;28;20445;-63
2022/05/07 13:32:00;;;;;;;3.03;2.80;;;26.30;53.20;;;;;;4994352;28;21029;-63
2022/05/07 13:34:27;;;;;;;2.00;1.87;;;26.40;56.70;;;;;;4994547;28;20487;-63
2022/05/07 13:36:54;;;;;;;3.53;2.73;;;26.40;55.30;;;;;;4994488;28;20613;-64
2022/05/07 13:39:21;;;;;;;3.17;2.20;;;26.50;56.70;;;;;;4994616;28;20532;-63
2022/05/07 13:41:49;;;;;;;3.60;2.67;;;26.20;54.10;;;;;;4994499;28;20485;-63
2022/05/07 13:44:15;;;;;;;5.33;2.17;;;26.10;53.90;;;;;;4994360;28;20544;-63
2022/05/07 13:46:43;;;;;;;4.40;2.17;;;26.20;55.10;;;;;;4994389;28;20454;-63
2022/05/07 13:49:10;;;;;;;2.60;2.50;;;26.40;56.10;;;;;;4994410;28;20454;-63
2022/05/07 13:51:37;;;;;;;2.83;2.63;;;26.50;53.50;;;;;;4993582;28;20478;-63
2022/05/07 13:54:03;;;;;;;4.47;2.63;;;26.20;53.70;;;;;;4994977;28;20454;-63
2022/05/07 13:56:31;;;;;;;2.90;2.30;;;26.00;53.20;;;;;;4994116;28;20470;-63
2022/05/07 13:58:59;;;;;;;3.03;2.83;;;25.80;55.70;;;;;;4994343;28;20457;-63
2022/05/07 14:01:26;;;;;;;3.40;3.03;;;25.40;55.30;;;;;;4993767;28;21002;-63
2022/05/07 14:03:53;;;;;;;2.83;2.60;;;25.30;56.50;;;;;;4994195;28;20512;-63
2022/05/07 14:06:22;;;;;;;3.47;3.27;;;25.10;56.40;;;;;;4994244;28;20504;-63
2022/05/07 14:08:49;;;;;;;3.90;3.10;;;24.80;55.70;;;;;;4993701;28;20524;-63
2022/05/07 14:11:16;;;;;;;4.23;2.70;;;24.60;56.20;;;;;;4994002;28;20473;-63
2022/05/07 14:13:44;;;;;;;3.50;3.00;;;24.60;58.60;;;;;;4994247;28;20821;-63
2022/05/07 14:16:12;;;;;;;3.10;2.90;;;24.60;56.70;;;;;;4994133;28;20565;-63
2022/05/07 14:18:39;;;;;;;7.80;3.57;;;24.50;59.20;;;;;;4994787;28;20933;-63
2022/05/07 14:21:06;;;;;;;4.60;3.60;;;24.20;57.20;;;;;;4993987;28;20564;-63
2022/05/07 14:23:33;;;;;;;6.70;3.60;;;24.00;57.40;;;;;;4994498;28;20493;-63
2022/05/07 14:26:01;;;;;;;3.50;3.30;;;23.70;58.00;;;;;;4994136;28;20809;-63
2022/05/07 14:28:28;;;;;;;3.47;3.17;;;23.70;57.80;;;;;;4994155;28;20454;-63
2022/05/07 14:30:57;;;;;;;4.90;3.67;;;23.70;58.00;;;;;;4994042;28;20499;-64
2022/05/07 14:33:26;;;;;;;4.03;3.60;;;24.00;58.90;;;;;;4993902;28;20457;-63
2022/05/07 14:35:53;;;;;;;3.27;3.07;;;24.30;59.60;;;;;;4993911;28;20473;-63
2022/05/07 14:38:20;;;;;;;3.10;2.90;;;24.70;59.30;;;;;;4993934;28;20813;-63
2022/05/07 14:40:46;;;;;;;4.17;3.60;;;24.90;58.60;;;;;;4993818;28;20473;-63
2022/05/07 14:43:13;;;;;;;3.20;2.83;;;24.90;56.50;;;;;;4993867;28;20461;-63
2022/05/07 14:45:40;;;;;;;3.17;2.97;;;24.90;56.50;;;;;;4993690;28;20825;-63
2022/05/07 14:48:08;;;;;;;3.50;3.30;;;25.20;57.40;;;;;;4993478;28;20961;-63
2022/05/07 14:50:36;;;;;;;3.60;3.37;;;25.40;57.40;;;;;;4993706;28;20474;-63
2022/05/07 14:53:02;;;;;;;3.30;3.00;;;25.40;57.10;;;;;;4993753;28;20841;-63
2022/05/07 14:55:30;;;;;;;3.17;2.97;;;25.40;57.10;;;;;;4993609;28;20477;-63
2022/05/07 14:57:56;;;;;;;5.60;3.87;;;25.20;57.20;;;;;;4993490;28;20450;-63
2022/05/07 15:00:23;;;;;;;5.23;3.10;;;25.10;56.60;;;;;;4993178;28;20943;-63
2022/05/07 15:02:51;;;;;;;4.13;3.57;;;24.90;56.90;;;;;;4995653;28;20438;-63
2022/05/07 15:05:18;;;;;;;3.43;2.90;;;24.70;56.40;;;;;;4997178;28;20464;-63
2022/05/07 15:07:46;;;;;;;4.00;3.80;;;24.50;57.80;;;;;;4997136;28;20460;-63
2022/05/07 15:12:58;;;;;;;6.20;4.33;;;25.00;59.10;;;;;;4997366;28;20505;-63
2022/05/07 15:15:25;;;;;;;4.50;3.80;;;25.30;59.10;;;;;;4997789;28;20457;-63
2022/05/07 15:17:52;;;;;;;3.60;3.40;;;25.40;57.60;;;;;;4996945;28;20449;-63
2022/05/07 15:20:19;;;;;;;4.70;4.30;;;25.50;56.80;;;;;;4996773;28;20815;-63
2022/05/07 15:22:48;;;;;;;4.80;4.47;;;25.40;55.90;;;;;;4996781;28;20932;-63
2022/05/07 15:25:15;;;;;;;4.53;4.13;;;25.50;57.00;;;;;;4996753;28;20508;-63
2022/05/07 15:27:46;;;;;;;6.20;4.70;;;25.50;57.70;;;;;;4996755;28;20454;-63
2022/05/07 15:30:13;;;;;;;3.70;3.50;;;25.50;57.70;;;;;;4996830;28;20537;-63
2022/05/07 15:38:09;;;;;;;4.33;4.03;;;25.10;56.50;;;;;;4996731;28;20433;-63
2022/05/07 15:40:36;;;;;;;4.70;4.30;;;25.00;57.30;;;;;;4996541;28;20481;-63
2022/05/07 15:43:03;;;;;;;4.80;4.00;;;24.80;57.60;;;;;;4996452;28;20493;-63
2022/05/07 15:45:31;;;;;;;6.03;5.13;;;24.60;58.20;;;;;;4996787;28;20461;-63
2022/05/07 15:47:57;;;;;;;6.73;5.90;;;24.70;58.50;;;;;;4996699;28;20492;-63
2022/05/07 15:50:24;;;;;;;7.70;5.13;;;24.80;58.00;;;;;;4997622;28;20453;-65
2022/05/07 15:52:53;;;;;;;5.60;4.03;;;24.80;57.40;;;;;;4996953;28;20464;-64
2022/05/07 15:55:21;;;;;;;4.50;4.10;;;24.70;57.60;;;;;;4996507;28;20458;-63
2022/05/07 15:57:48;;;;;;;6.40;3.77;;;24.70;57.00;;;;;;4996711;28;20496;-64
2022/05/07 16:00:15;;;;;;;4.50;4.20;;;24.60;57.00;;;;;;4996337;28;20458;-63
2022/05/07 16:02:43;;;;;;;3.63;3.43;;;24.60;56.70;;;;;;4996429;28;20481;-63
2022/05/07 16:05:10;;;;;;;4.00;3.70;;;24.50;58.10;;;;;;4996129;28;20561;-63
2022/05/07 16:07:38;;;;;;;6.03;4.40;;;24.50;57.70;;;;;;4996283;28;20450;-65
2022/05/07 16:10:06;;;;;;;4.73;4.30;;;24.60;57.50;;;;;;4996257;28;20476;-64
2022/05/07 16:12:34;;;;;;;5.00;4.27;;;24.60;58.00;;;;;;4996080;28;20544;-63
2022/05/07 16:15:01;;;;;;;4.07;3.70;;;24.50;59.30;;;;;;4995229;28;20529;-63
2022/05/07 16:17:28;;;;;;;4.10;3.73;;;24.50;58.50;;;;;;4995957;28;20477;-63
2022/05/07 16:19:55;;;;;;;4.27;3.90;;;24.00;57.70;;;;;;4995832;28;20494;-63
2022/05/07 16:25:07;;;;;;;5.23;4.83;;;23.70;58.50;;;;;;4995812;28;20413;-63
2022/05/07 16:27:35;;;;;;;4.80;4.50;;;23.60;59.10;;;;;;4995550;28;20504;-63
2022/05/07 16:30:02;;;;;;;5.00;4.60;;;23.40;58.50;;;;;;4995385;28;21014;-63
2022/05/07 16:32:29;;;;;;;6.63;4.47;;;23.20;59.00;;;;;;4995290;28;20980;-64
2022/05/07 16:34:55;;;;;;;4.40;4.10;;;23.00;58.10;;;;;;4995779;28;20532;-63
2022/05/07 16:37:22;;;;;;;4.80;4.50;;;22.90;59.10;;;;;;4995802;28;20488;-64
2022/05/07 16:39:49;;;;;;;6.03;3.80;;;22.80;59.40;;;;;;4995406;28;20863;-64
2022/05/07 16:42:16;;;;;;;5.00;4.27;;;22.70;59.80;;;;;;4995991;28;20568;-63
2022/05/07 16:44:44;;;;;;;5.33;4.60;;;22.70;60.60;;;;;;4995975;28;20800;-64
2022/05/07 16:47:11;;;;;;;4.73;4.33;;;22.70;60.90;;;;;;4996271;28;20527;-63
2022/05/07 16:49:39;;;;;;;4.60;4.30;;;22.70;59.40;;;;;;4995623;28;20461;-63
2022/05/07 16:52:06;;;;;;;4.67;4.20;;;22.60;58.50;;;;;;4995981;28;20473;-64
2022/05/07 16:54:33;;;;;;;5.57;4.00;;;22.50;59.00;;;;;;4996258;28;20537;-63
2022/05/07 16:57:00;;;;;;;4.73;4.33;;;22.50;59.30;;;;;;4995786;28;20485;-63
2022/05/07 16:59:27;;;;;;;3.87;3.67;;;22.40;60.00;;;;;;4995209;28;20457;-63
2022/05/07 17:01:55;;;;;;;4.77;4.30;;;22.30;59.60;;;;;;4994793;28;20987;-62
2022/05/07 17:04:23;;;;;;;5.20;4.53;;;22.30;59.70;;;;;;4994832;28;20454;-62
2022/05/07 17:06:50;;;;;;;4.83;4.30;;;22.40;60.70;;;;;;4995520;28;20464;-63
2022/05/07 17:09:17;;;;;;;4.63;4.23;;;22.40;62.90;;;;;;4995695;28;20467;-62
2022/05/07 17:11:43;;;;;;;5.73;5.23;;;22.50;65.50;;;;;;4995227;28;20600;-63
2022/05/07 17:14:10;;;;;;;5.17;4.10;;;22.50;61.60;;;;;;4995737;28;20918;-63
2022/05/07 17:16:37;;;;;;;5.53;5.13;;;22.50;61.60;;;;;;4994963;28;20485;-63
2022/05/07 17:19:06;;;;;;;4.50;4.20;;;22.50;61.20;;;;;;4997103;28;20460;-63
2022/05/07 17:21:33;;;;;;;4.67;4.30;;;22.50;63.20;;;;;;4997793;28;20477;-64
2022/05/07 17:24:00;;;;;;;11.03;10.03;;;22.50;61.70;;;;;;4996792;28;20481;-62
2022/05/07 17:26:26;;;;;;;5.23;4.83;;;22.50;61.10;;;;;;4997201;28;20968;-63
2022/05/07 17:28:53;;;;;;;7.17;3.90;;;22.50;61.80;;;;;;4997720;28;20560;-63